KAID/AID METAR and TAF weather

Enter ICAO airport designator
Station Type Date Time Source
KAID METAR 2020/02/20 23:15 UTC NOAA

KAID 202315Z AUTO 36009KT 10SM OVC040 M04/M12 A3058 RMK AO2 T10361116


Station Type Date Time Source
KAID Decoded METAR 2020/02/20 23:15 UTC NOAA

Anderson Municipal, IN, United States (KAID) 40-07N 085-37W
Feb 20, 2020 - 06:15 PM EST / 2020.02.20 2315 UTC
Wind: from the N (360 degrees) at 10 MPH (9 KT):0
Visibility: 10 mile(s):0
Sky conditions: overcast
Temperature: 25.5 F (-3.6 C)
Windchill: 15 F (-9 C):1
Dew Point: 11.1 F (-11.6 C)
Relative Humidity: 53%
Pressure (altimeter): 30.58 in. Hg (1035 hPa)
ob: KAID 202315Z AUTO 36009KT 10SM OVC040 M04/M12 A3058 RMK AO2 T10361116
cycle: 23

Station Type Date Time Source
KAID TAF UTC NOAA

Error!

Example: see airport list